Time;durP1;ratioP1;P1;durP2;ratioP2;P2;SDS_P1;SDS_P2;PMS_P1;PMS_P2;Temp;Humidity;BMP_temperature;BMP_pressure;BME280_temperature;BME280_humidity;BME280_pressure;Samples;Min_cycle;Max_cycle;Signal;HPM_P1;HPM_P2
2024/01/30 00:00:59;;;;;;;21.42;8.30;;;;;;;;;;5043669;28;20499;-67
2024/01/30 00:03:45;;;;;;;24.40;8.77;;;;;;;;;;5047549;28;20106;-66
2024/01/30 00:06:12;;;;;;;17.88;9.07;;;;;;;;;;5049263;28;20041;-65
2024/01/30 00:08:39;;;;;;;23.85;9.07;;;;;;;;;;5049627;28;20501;-65
2024/01/30 00:11:05;;;;;;;18.95;8.50;;;;;;;;;;5046799;28;20049;-66
2024/01/30 00:13:31;;;;;;;30.90;9.23;;;;;;;;;;5044956;28;20389;-67
2024/01/30 00:16:04;;;;;;;18.38;7.93;;;;;;;;;;5045031;28;20162;-68
2024/01/30 00:18:31;;;;;;;23.80;8.63;;;;;;;;;;5051936;28;20044;-66
2024/01/30 00:20:57;;;;;;;21.60;8.57;;;;;;;;;;5046395;28;20128;-65
2024/01/30 00:23:24;;;;;;;18.88;8.20;;;;;;;;;;5048728;28;20051;-66
2024/01/30 00:25:50;;;;;;;15.25;8.10;;;;;;;;;;5045523;28;20079;-66
2024/01/30 00:28:25;;;;;;;19.17;8.23;;;;;;;;;;5048219;28;20114;-65
2024/01/30 00:30:51;;;;;;;13.48;7.50;;;;;;;;;;5051096;28;20436;-67
2024/01/30 00:33:22;;;;;;;17.17;8.07;;;;;;;;;;5045877;28;20053;-66
2024/01/30 00:35:48;;;;;;;20.38;8.57;;;;;;;;;;5046670;28;20128;-68
2024/01/30 00:38:16;;;;;;;16.33;8.43;;;;;;;;;;5047935;28;20052;-65
2024/01/30 00:40:42;;;;;;;18.92;8.05;;;;;;;;;;5043711;28;20048;-65
2024/01/30 00:43:08;;;;;;;23.38;8.93;;;;;;;;;;5045044;28;20110;-68
2024/01/30 00:45:37;;;;;;;19.23;8.15;;;;;;;;;;5042757;28;20053;-65
2024/01/30 00:48:07;;;;;;;17.83;9.17;;;;;;;;;;5045603;28;20102;-66
2024/01/30 00:50:39;;;;;;;20.38;9.18;;;;;;;;;;5042255;28;20662;-68
2024/01/30 00:53:05;;;;;;;17.85;9.57;;;;;;;;;;5038533;28;20054;-68
2024/01/30 00:55:31;;;;;;;18.27;9.00;;;;;;;;;;5043760;28;20049;-68
2024/01/30 00:57:57;;;;;;;22.80;9.13;;;;;;;;;;5043284;28;20044;-67
2024/01/30 01:00:28;;;;;;;18.52;9.73;;;;;;;;;;5049493;28;20059;-67
2024/01/30 01:02:58;;;;;;;17.10;9.25;;;;;;;;;;5046321;28;20056;-65
2024/01/30 01:05:25;;;;;;;18.02;9.48;;;;;;;;;;5047693;28;20045;-65
2024/01/30 01:07:51;;;;;;;17.23;9.10;;;;;;;;;;5046292;28;20045;-66
2024/01/30 01:10:18;;;;;;;19.77;9.90;;;;;;;;;;5043952;28;20132;-65
2024/01/30 01:12:44;;;;;;;23.65;10.23;;;;;;;;;;5046551;28;20377;-65
2024/01/30 01:15:12;;;;;;;27.15;10.32;;;;;;;;;;5049227;28;20461;-66
2024/01/30 01:17:40;;;;;;;20.60;10.20;;;;;;;;;;5046923;28;20057;-67
2024/01/30 01:20:07;;;;;;;23.00;10.73;;;;;;;;;;5047042;28;20053;-65
2024/01/30 01:22:34;;;;;;;21.25;10.55;;;;;;;;;;5047307;28;20675;-66
2024/01/30 01:25:02;;;;;;;23.35;9.95;;;;;;;;;;5045258;28;20049;-66
2024/01/30 01:27:28;;;;;;;19.15;10.43;;;;;;;;;;5046792;28;20045;-66
2024/01/30 01:29:54;;;;;;;20.50;10.45;;;;;;;;;;5046210;28;20053;-66
2024/01/30 01:32:21;;;;;;;28.58;11.00;;;;;;;;;;5039873;28;20416;-64
2024/01/30 01:34:47;;;;;;;24.85;9.57;;;;;;;;;;5040788;28;20048;-65
2024/01/30 01:37:13;;;;;;;21.48;10.82;;;;;;;;;;5039966;28;20172;-65
2024/01/30 01:39:40;;;;;;;22.02;10.90;;;;;;;;;;5045023;28;20572;-65
2024/01/30 01:42:07;;;;;;;22.38;10.68;;;;;;;;;;5044950;28;20041;-66
2024/01/30 01:44:32;;;;;;;29.25;11.80;;;;;;;;;;5048105;28;20045;-65
2024/01/30 01:46:59;;;;;;;21.92;10.95;;;;;;;;;;5042928;28;20069;-65
2024/01/30 01:49:27;;;;;;;24.35;11.38;;;;;;;;;;5047431;28;20119;-66
2024/01/30 01:51:56;;;;;;;20.10;10.80;;;;;;;;;;5046345;28;20045;-65
2024/01/30 01:54:24;;;;;;;20.92;10.90;;;;;;;;;;5038361;28;20110;-64
2024/01/30 01:56:51;;;;;;;21.63;10.68;;;;;;;;;;5045998;28;20075;-64
2024/01/30 01:59:18;;;;;;;21.73;11.75;;;;;;;;;;5044237;28;20414;-65
2024/01/30 02:01:48;;;;;;;25.55;10.57;;;;;;;;;;5047636;28;20459;-65
2024/01/30 02:04:15;;;;;;;19.95;10.82;;;;;;;;;;5046756;28;20507;-65
2024/01/30 02:06:44;;;;;;;29.42;11.25;;;;;;;;;;5045708;28;20049;-66
2024/01/30 02:09:09;;;;;;;17.75;10.48;;;;;;;;;;5045943;28;20056;-65
2024/01/30 02:11:36;;;;;;;28.63;11.30;;;;;;;;;;5034621;28;20049;-65
2024/01/30 02:14:05;;;;;;;22.75;11.30;;;;;;;;;;5044644;28;20033;-66
2024/01/30 02:16:32;;;;;;;24.65;11.40;;;;;;;;;;5040847;28;20052;-65
2024/01/30 02:18:58;;;;;;;24.10;10.75;;;;;;;;;;5042367;28;20051;-65
2024/01/30 02:21:24;;;;;;;25.63;10.13;;;;;;;;;;5045387;28;20067;-65
2024/01/30 02:23:52;;;;;;;22.92;10.88;;;;;;;;;;5040442;28;20123;-66
2024/01/30 02:26:18;;;;;;;31.65;12.15;;;;;;;;;;5057801;28;20401;-66
2024/01/30 02:28:44;;;;;;;19.52;10.82;;;;;;;;;;5041595;28;20064;-66
2024/01/30 02:31:10;;;;;;;30.13;12.30;;;;;;;;;;5044650;28;20064;-66
2024/01/30 02:33:37;;;;;;;21.83;11.00;;;;;;;;;;5041249;28;20073;-65
2024/01/30 02:36:04;;;;;;;24.33;10.93;;;;;;;;;;5039713;28;20073;-65
2024/01/30 02:38:30;;;;;;;26.75;11.13;;;;;;;;;;5037949;28;20071;-66
2024/01/30 02:40:57;;;;;;;21.25;10.10;;;;;;;;;;5043793;28;20091;-65
2024/01/30 02:43:23;;;;;;;21.10;10.45;;;;;;;;;;5044162;28;20064;-69
2024/01/30 02:45:49;;;;;;;25.10;11.30;;;;;;;;;;5042228;28;20631;-64
2024/01/30 02:53:24;;;;;;;25.38;10.68;;;;;;;;;;5288829;23;20058;-65
2024/01/30 02:55:50;;;;;;;22.27;10.40;;;;;;;;;;4985742;28;20042;-67
2024/01/30 02:58:16;;;;;;;22.02;10.02;;;;;;;;;;4983734;28;20046;-68
2024/01/30 03:00:42;;;;;;;22.50;10.45;;;;;;;;;;4987180;28;20047;-67
2024/01/30 03:03:10;;;;;;;26.25;10.93;;;;;;;;;;4985214;28;20043;-66
2024/01/30 03:05:37;;;;;;;26.42;11.73;;;;;;;;;;4985668;28;20134;-64
2024/01/30 03:08:04;;;;;;;23.98;10.38;;;;;;;;;;4981262;28;20756;-65
2024/01/30 03:10:31;;;;;;;20.60;10.25;;;;;;;;;;4988141;28;20050;-65
2024/01/30 03:12:57;;;;;;;18.95;10.85;;;;;;;;;;4985824;28;20046;-66
2024/01/30 03:15:23;;;;;;;28.80;10.90;;;;;;;;;;4987635;28;20050;-65
2024/01/30 03:17:49;;;;;;;19.63;10.32;;;;;;;;;;4983738;28;20097;-66
2024/01/30 03:20:15;;;;;;;22.98;9.98;;;;;;;;;;4986577;28;20054;-65
2024/01/30 03:22:40;;;;;;;22.92;11.70;;;;;;;;;;4989023;28;20052;-65
2024/01/30 03:25:07;;;;;;;22.58;10.38;;;;;;;;;;4982956;28;20077;-66
2024/01/30 03:27:34;;;;;;;19.20;11.05;;;;;;;;;;4989430;28;20057;-65
2024/01/30 03:30:03;;;;;;;24.50;10.50;;;;;;;;;;4988486;28;20046;-65
2024/01/30 03:32:29;;;;;;;22.52;10.95;;;;;;;;;;4989433;28;20161;-65
2024/01/30 03:34:55;;;;;;;22.55;11.20;;;;;;;;;;4983672;28;20043;-65
2024/01/30 03:37:21;;;;;;;24.33;10.75;;;;;;;;;;4984808;28;20116;-65
2024/01/30 03:39:47;;;;;;;21.15;11.15;;;;;;;;;;4984167;28;20406;-66
2024/01/30 03:42:13;;;;;;;19.58;11.15;;;;;;;;;;4988592;28;20046;-65
2024/01/30 03:44:39;;;;;;;20.88;10.25;;;;;;;;;;4984026;28;20051;-64
2024/01/30 03:47:06;;;;;;;26.15;11.45;;;;;;;;;;4988977;28;20097;-65
2024/01/30 03:49:32;;;;;;;17.23;10.60;;;;;;;;;;4988236;28;20052;-64
2024/01/30 03:51:59;;;;;;;23.70;11.05;;;;;;;;;;4986316;28;20050;-67
2024/01/30 03:54:26;;;;;;;24.48;11.23;;;;;;;;;;4977021;28;20054;-66
2024/01/30 03:56:54;;;;;;;22.38;10.88;;;;;;;;;;4985045;28;20478;-64
2024/01/30 03:59:23;;;;;;;32.13;11.30;;;;;;;;;;4988678;28;20420;-64
2024/01/30 04:01:51;;;;;;;24.75;10.32;;;;;;;;;;4989973;28;20173;-65
2024/01/30 04:04:20;;;;;;;20.58;10.10;;;;;;;;;;4990740;28;20062;-65
2024/01/30 04:06:47;;;;;;;17.35;10.85;;;;;;;;;;4991962;28;20034;-65
2024/01/30 04:09:13;;;;;;;23.30;11.55;;;;;;;;;;4991865;28;20421;-65
2024/01/30 04:11:40;;;;;;;23.88;11.23;;;;;;;;;;4986442;28;20062;-64
2024/01/30 04:14:06;;;;;;;20.35;9.93;;;;;;;;;;4989086;28;20046;-65
2024/01/30 04:16:32;;;;;;;17.52;8.75;;;;;;;;;;4988373;28;20047;-64
2024/01/30 04:18:58;;;;;;;16.25;9.10;;;;;;;;;;4990146;28;20054;-64
2024/01/30 04:21:24;;;;;;;23.70;9.85;;;;;;;;;;4989980;28;20057;-64
2024/01/30 04:23:52;;;;;;;15.15;8.52;;;;;;;;;;4993260;28;20047;-71
2024/01/30 04:26:19;;;;;;;18.00;8.77;;;;;;;;;;4986429;28;20057;-64
2024/01/30 04:28:45;;;;;;;16.27;8.27;;;;;;;;;;4989982;28;20057;-66
2024/01/30 04:31:11;;;;;;;16.33;7.80;;;;;;;;;;4991357;28;20133;-65
2024/01/30 04:33:38;;;;;;;19.15;8.60;;;;;;;;;;4991070;28;20053;-65
2024/01/30 04:36:04;;;;;;;16.05;8.30;;;;;;;;;;4985079;28;20501;-68
2024/01/30 04:38:31;;;;;;;24.15;8.38;;;;;;;;;;4990948;28;20108;-65
2024/01/30 04:40:57;;;;;;;16.52;7.82;;;;;;;;;;4992911;28;20074;-65
2024/01/30 04:43:23;;;;;;;15.77;7.90;;;;;;;;;;4987841;28;20054;-65
2024/01/30 04:45:50;;;;;;;14.80;8.23;;;;;;;;;;4984493;28;20044;-66
2024/01/30 04:48:16;;;;;;;17.00;8.25;;;;;;;;;;4988691;28;20074;-65
2024/01/30 04:50:43;;;;;;;12.40;8.07;;;;;;;;;;4988579;28;20062;-67
2024/01/30 04:53:10;;;;;;;15.32;7.50;;;;;;;;;;4988307;28;20058;-65
2024/01/30 04:55:36;;;;;;;14.93;7.00;;;;;;;;;;4987417;28;20053;-66
2024/01/30 04:58:03;;;;;;;19.83;7.53;;;;;;;;;;4982090;28;20059;-65
2024/01/30 05:00:29;;;;;;;16.73;7.47;;;;;;;;;;4989637;28;20468;-67
2024/01/30 05:02:55;;;;;;;13.23;7.65;;;;;;;;;;4986809;28;20613;-65
2024/01/30 05:05:21;;;;;;;14.95;7.35;;;;;;;;;;4987072;28;20141;-65
2024/01/30 05:07:48;;;;;;;15.43;6.93;;;;;;;;;;4989620;28;20128;-66
2024/01/30 05:10:14;;;;;;;13.63;6.95;;;;;;;;;;4980464;28;20466;-65
2024/01/30 05:12:41;;;;;;;11.80;7.10;;;;;;;;;;4989081;28;20493;-65
2024/01/30 05:15:07;;;;;;;11.63;6.97;;;;;;;;;;4986982;28;20141;-64
2024/01/30 05:17:33;;;;;;;17.25;7.40;;;;;;;;;;4987252;28;20179;-65
2024/01/30 05:19:59;;;;;;;14.48;7.05;;;;;;;;;;4986196;28;20042;-65
2024/01/30 05:22:26;;;;;;;13.75;6.53;;;;;;;;;;4989798;28;20053;-65
2024/01/30 05:24:53;;;;;;;14.10;6.57;;;;;;;;;;4984922;28;20050;-66
2024/01/30 05:27:19;;;;;;;16.70;7.32;;;;;;;;;;4990465;28;20062;-64
2024/01/30 05:29:46;;;;;;;18.52;6.97;;;;;;;;;;4982118;28;20129;-65
2024/01/30 05:32:12;;;;;;;17.05;6.72;;;;;;;;;;4991158;28;20081;-66
2024/01/30 05:34:39;;;;;;;16.63;7.75;;;;;;;;;;4986702;28;20057;-67
2024/01/30 05:37:05;;;;;;;13.73;6.65;;;;;;;;;;4989322;28;20521;-66
2024/01/30 05:39:32;;;;;;;12.45;7.03;;;;;;;;;;4988517;28;20057;-67
2024/01/30 05:41:59;;;;;;;14.93;7.43;;;;;;;;;;4990414;28;20052;-66
2024/01/30 05:44:24;;;;;;;14.30;7.35;;;;;;;;;;4988390;28;20054;-65
2024/01/30 05:46:51;;;;;;;15.77;7.35;;;;;;;;;;4988810;28;20185;-66
2024/01/30 05:49:16;;;;;;;15.80;7.53;;;;;;;;;;4988938;28;20564;-67
2024/01/30 05:51:43;;;;;;;16.48;6.88;;;;;;;;;;4988258;28;20049;-67
2024/01/30 05:54:09;;;;;;;14.07;7.57;;;;;;;;;;4986533;28;20413;-67
2024/01/30 05:56:35;;;;;;;13.90;6.57;;;;;;;;;;4985631;28;20544;-68
2024/01/30 05:59:01;;;;;;;18.00;7.32;;;;;;;;;;4988266;28;20054;-65
2024/01/30 06:01:27;;;;;;;13.05;7.15;;;;;;;;;;4985400;28;20069;-66
2024/01/30 06:03:53;;;;;;;13.48;7.30;;;;;;;;;;4989171;28;20046;-67
2024/01/30 06:06:20;;;;;;;12.05;6.30;;;;;;;;;;4985943;28;20112;-65
2024/01/30 06:08:48;;;;;;;20.80;6.80;;;;;;;;;;4987830;28;20498;-67
2024/01/30 06:11:14;;;;;;;15.88;6.50;;;;;;;;;;4986611;28;20043;-66
2024/01/30 06:13:40;;;;;;;14.55;7.05;;;;;;;;;;4986600;28;20065;-66
2024/01/30 06:16:11;;;;;;;16.95;7.22;;;;;;;;;;4984336;28;20061;-68
2024/01/30 06:18:37;;;;;;;13.98;7.00;;;;;;;;;;5000677;28;20042;-67
2024/01/30 06:21:04;;;;;;;16.65;7.25;;;;;;;;;;4987161;28;20050;-67
2024/01/30 06:24:11;;;;;;;12.68;7.13;;;;;;;;;;4986681;28;20137;-69
2024/01/30 06:27:51;;;;;;;13.13;6.93;;;;;;;;;;4987497;28;20403;-66
2024/01/30 06:31:32;;;;;;;17.80;6.95;;;;;;;;;;4984650;28;20138;-67
2024/01/30 06:35:12;;;;;;;16.75;6.85;;;;;;;;;;4979288;28;21072;-66
2024/01/30 06:38:52;;;;;;;11.82;7.07;;;;;;;;;;4983867;28;20042;-64
2024/01/30 06:42:34;;;;;;;13.85;7.88;;;;;;;;;;4989261;28;20043;-68
2024/01/30 06:46:14;;;;;;;15.15;7.60;;;;;;;;;;4983986;28;20096;-67
2024/01/30 06:49:54;;;;;;;21.02;7.32;;;;;;;;;;4977841;28;20050;-67
2024/01/30 06:53:36;;;;;;;15.98;7.38;;;;;;;;;;4988056;28;20069;-67
2024/01/30 06:56:47;;;;;;;19.13;8.43;;;;;;;;;;4981266;28;20050;-67
2024/01/30 07:00:27;;;;;;;19.25;8.40;;;;;;;;;;4979560;28;20570;-67
2024/01/30 07:04:09;;;;;;;23.40;8.70;;;;;;;;;;4977602;28;20050;-70
2024/01/30 07:07:49;;;;;;;18.70;8.98;;;;;;;;;;4985482;28;20432;-73
2024/01/30 07:11:30;;;;;;;19.10;8.68;;;;;;;;;;4978928;28;20051;-70
2024/01/30 07:15:12;;;;;;;19.00;8.70;;;;;;;;;;4983896;28;20058;-72
2024/01/30 07:18:52;;;;;;;20.65;9.32;;;;;;;;;;4984194;28;20055;-72
2024/01/30 07:22:32;;;;;;;23.73;10.10;;;;;;;;;;4985374;28;20046;-72
2024/01/30 07:26:12;;;;;;;26.98;9.95;;;;;;;;;;4983263;28;20042;-72
2024/01/30 07:29:53;;;;;;;17.05;9.10;;;;;;;;;;4986616;28;20053;-72
2024/01/30 07:33:33;;;;;;;17.67;9.38;;;;;;;;;;4981561;28;20409;-70
2024/01/30 07:36:19;;;;;;;21.48;9.68;;;;;;;;;;4984245;28;20054;-67
2024/01/30 07:38:45;;;;;;;25.20;10.98;;;;;;;;;;4982701;28;20055;-69
2024/01/30 07:41:12;;;;;;;17.90;9.82;;;;;;;;;;4987279;28;20097;-69
2024/01/30 07:43:39;;;;;;;24.33;10.43;;;;;;;;;;4983990;28;20046;-67
2024/01/30 07:46:06;;;;;;;21.60;10.52;;;;;;;;;;4989482;28;20054;-70
2024/01/30 07:48:34;;;;;;;20.35;10.30;;;;;;;;;;4988921;28;20050;-65
2024/01/30 07:51:00;;;;;;;21.48;9.15;;;;;;;;;;4990233;28;20109;-66
2024/01/30 07:53:27;;;;;;;19.95;9.68;;;;;;;;;;4988407;28;20050;-67
2024/01/30 07:55:57;;;;;;;21.90;9.38;;;;;;;;;;4988465;28;20058;-67
2024/01/30 07:58:23;;;;;;;25.75;9.35;;;;;;;;;;4990931;28;20129;-67
2024/01/30 08:00:51;;;;;;;22.38;9.15;;;;;;;;;;5006821;28;20556;-67
2024/01/30 08:03:18;;;;;;;22.67;9.23;;;;;;;;;;4990135;28;20060;-67
2024/01/30 08:05:45;;;;;;;22.20;9.77;;;;;;;;;;4988442;28;20054;-67
2024/01/30 08:08:12;;;;;;;18.90;9.25;;;;;;;;;;5006562;28;20043;-67
2024/01/30 08:11:32;;;;;;;19.13;8.80;;;;;;;;;;4983431;28;20040;-69
2024/01/30 08:15:14;;;;;;;18.13;8.68;;;;;;;;;;4985725;28;20446;-66
2024/01/30 08:18:57;;;;;;;27.48;7.78;;;;;;;;;;4983027;28;20038;-68
2024/01/30 08:21:49;;;;;;;21.52;7.97;;;;;;;;;;4990338;28;20494;-69
2024/01/30 08:24:14;;;;;;;24.75;8.80;;;;;;;;;;4985626;28;20049;-67
2024/01/30 08:26:45;;;;;;;15.05;8.48;;;;;;;;;;4981072;28;20061;-67
2024/01/30 08:29:10;;;;;;;18.20;7.70;;;;;;;;;;4986384;28;20050;-67
2024/01/30 08:31:40;;;;;;;14.15;7.18;;;;;;;;;;4987929;28;20129;-68
2024/01/30 08:34:06;;;;;;;22.30;8.63;;;;;;;;;;4986012;28;20133;-68
2024/01/30 08:36:32;;;;;;;15.95;7.60;;;;;;;;;;4983542;28;20422;-68
2024/01/30 08:38:58;;;;;;;12.48;8.27;;;;;;;;;;4993717;28;20065;-70
2024/01/30 08:41:25;;;;;;;16.20;7.93;;;;;;;;;;4989561;28;20058;-67
2024/01/30 08:43:52;;;;;;;19.38;8.35;;;;;;;;;;4990528;28;20054;-67
2024/01/30 08:46:18;;;;;;;18.02;8.13;;;;;;;;;;4985303;28;20581;-68
2024/01/30 08:48:47;;;;;;;22.30;8.38;;;;;;;;;;4990546;28;20050;-67
2024/01/30 08:51:15;;;;;;;22.73;8.07;;;;;;;;;;4991135;28;20057;-67
2024/01/30 08:53:41;;;;;;;18.00;8.23;;;;;;;;;;4990813;28;20058;-67
2024/01/30 08:56:08;;;;;;;18.92;8.60;;;;;;;;;;4982254;28;20046;-69
2024/01/30 08:58:35;;;;;;;19.35;8.55;;;;;;;;;;4990809;28;20046;-69
2024/01/30 09:01:05;;;;;;;22.80;10.05;;;;;;;;;;4990792;28;20050;-69
2024/01/30 09:03:31;;;;;;;33.85;10.02;;;;;;;;;;4992079;28;20054;-67
2024/01/30 09:05:58;;;;;;;19.95;10.18;;;;;;;;;;4987896;28;20046;-67
2024/01/30 09:08:24;;;;;;;23.17;9.38;;;;;;;;;;4993366;28;20463;-69
2024/01/30 09:10:51;;;;;;;23.17;9.75;;;;;;;;;;4990250;28;20061;-68
2024/01/30 09:13:19;;;;;;;20.98;8.50;;;;;;;;;;4990770;28;20108;-69
2024/01/30 09:15:46;;;;;;;28.40;9.30;;;;;;;;;;4991511;28;20060;-72
2024/01/30 09:18:12;;;;;;;19.15;10.48;;;;;;;;;;4991715;28;20050;-68
2024/01/30 09:20:38;;;;;;;20.98;8.98;;;;;;;;;;4982758;28;20054;-69
2024/01/30 09:23:04;;;;;;;17.48;8.77;;;;;;;;;;4988628;28;20528;-71
2024/01/30 09:25:31;;;;;;;22.08;8.85;;;;;;;;;;4989413;28;20058;-68
2024/01/30 09:27:58;;;;;;;24.70;9.48;;;;;;;;;;5002048;28;20139;-68
2024/01/30 09:30:24;;;;;;;25.23;9.35;;;;;;;;;;4985198;28;20061;-68
2024/01/30 09:32:50;;;;;;;15.73;9.25;;;;;;;;;;4992673;28;20050;-69
2024/01/30 09:35:16;;;;;;;22.83;9.60;;;;;;;;;;4980806;28;20063;-70
2024/01/30 09:37:42;;;;;;;20.00;8.98;;;;;;;;;;4992567;28;20508;-67
2024/01/30 09:40:08;;;;;;;20.08;8.93;;;;;;;;;;4990451;28;20053;-67
2024/01/30 09:42:35;;;;;;;19.27;8.50;;;;;;;;;;4993982;28;20100;-66
2024/01/30 09:45:04;;;;;;;23.55;8.65;;;;;;;;;;4990078;28;20074;-68
2024/01/30 09:47:42;;;;;;;18.77;8.88;;;;;;;;;;4982717;28;20050;-68
2024/01/30 09:50:09;;;;;;;23.77;9.27;;;;;;;;;;4986055;28;20050;-68
2024/01/30 09:52:35;;;;;;;17.02;8.82;;;;;;;;;;4990961;28;20069;-68
2024/01/30 09:55:02;;;;;;;17.10;8.05;;;;;;;;;;4983685;28;20051;-68
2024/01/30 09:57:28;;;;;;;14.60;7.97;;;;;;;;;;4988448;28;20038;-68
2024/01/30 09:59:55;;;;;;;18.80;8.90;;;;;;;;;;4989055;28;20077;-67
2024/01/30 10:02:21;;;;;;;14.52;8.18;;;;;;;;;;4990248;28;20050;-66
2024/01/30 10:04:52;;;;;;;15.90;8.80;;;;;;;;;;4988633;28;20405;-66
2024/01/30 10:07:18;;;;;;;16.10;9.07;;;;;;;;;;4989567;28;20410;-66
2024/01/30 10:09:46;;;;;;;16.95;8.88;;;;;;;;;;4989333;28;20161;-66
2024/01/30 10:12:13;;;;;;;16.92;9.35;;;;;;;;;;4990596;28;20049;-69
2024/01/30 10:14:40;;;;;;;23.80;9.55;;;;;;;;;;4985790;28;20058;-68
2024/01/30 10:17:09;;;;;;;20.42;9.82;;;;;;;;;;4967460;28;20047;-70
2024/01/30 10:19:44;;;;;;;18.17;10.43;;;;;;;;;;4984492;28;20064;-67
2024/01/30 10:22:10;;;;;;;24.00;10.35;;;;;;;;;;4988043;28;20530;-68
2024/01/30 10:24:36;;;;;;;21.33;11.38;;;;;;;;;;4988683;28;20050;-67
2024/01/30 10:27:03;;;;;;;22.75;10.63;;;;;;;;;;4987260;28;20046;-69
2024/01/30 10:29:30;;;;;;;17.33;10.25;;;;;;;;;;4986355;28;20045;-67
2024/01/30 10:32:05;;;;;;;26.58;11.60;;;;;;;;;;5002600;28;20031;-68
2024/01/30 10:34:34;;;;;;;22.75;11.50;;;;;;;;;;4988393;28;20073;-68
2024/01/30 10:37:21;;;;;;;18.98;9.85;;;;;;;;;;4990157;28;20141;-69
2024/01/30 10:39:55;;;;;;;20.67;10.23;;;;;;;;;;4984918;28;20073;-67
2024/01/30 10:42:31;;;;;;;24.08;11.35;;;;;;;;;;4986683;28;20217;-68
2024/01/30 10:45:13;;;;;;;29.15;13.10;;;;;;;;;;4989210;28;20580;-66
2024/01/30 10:47:47;;;;;;;29.30;11.98;;;;;;;;;;5002662;28;20053;-69
2024/01/30 10:50:14;;;;;;;26.27;12.20;;;;;;;;;;4988525;28;21029;-68
2024/01/30 10:52:44;;;;;;;24.65;11.25;;;;;;;;;;4983719;28;20057;-68
2024/01/30 10:55:12;;;;;;;29.65;13.45;;;;;;;;;;4985942;28;20050;-69
2024/01/30 10:57:38;;;;;;;31.33;12.68;;;;;;;;;;4992133;28;20578;-67
2024/01/30 11:00:26;;;;;;;32.63;12.50;;;;;;;;;;4984181;28;20042;-67
2024/01/30 11:02:54;;;;;;;29.60;12.98;;;;;;;;;;4968894;28;20046;-68
2024/01/30 11:05:27;;;;;;;32.40;12.43;;;;;;;;;;4988490;28;20062;-68
2024/01/30 11:07:53;;;;;;;24.13;12.65;;;;;;;;;;4989192;28;20074;-66
2024/01/30 11:10:19;;;;;;;31.33;14.32;;;;;;;;;;5003865;28;20516;-67
2024/01/30 11:12:55;;;;;;;30.83;13.43;;;;;;;;;;4991747;28;20050;-68
2024/01/30 11:15:21;;;;;;;33.17;13.45;;;;;;;;;;4991627;28;20398;-67
2024/01/30 11:17:55;;;;;;;26.00;13.60;;;;;;;;;;4993096;28;20054;-70
2024/01/30 11:20:25;;;;;;;38.47;13.98;;;;;;;;;;4993238;28;20501;-68
2024/01/30 11:22:52;;;;;;;26.92;13.52;;;;;;;;;;4982326;28;20102;-71
2024/01/30 11:25:22;;;;;;;27.60;12.88;;;;;;;;;;4989613;28;20457;-69
2024/01/30 11:27:53;;;;;;;27.58;12.68;;;;;;;;;;4991246;28;20057;-68
2024/01/30 11:30:30;;;;;;;28.38;12.88;;;;;;;;;;4988680;28;20531;-68
2024/01/30 11:33:11;;;;;;;25.60;12.90;;;;;;;;;;4988388;28;20077;-68
2024/01/30 11:35:46;;;;;;;30.38;13.48;;;;;;;;;;4992020;28;20086;-69
2024/01/30 11:38:16;;;;;;;24.10;13.18;;;;;;;;;;5008267;28;20050;-68
2024/01/30 11:40:44;;;;;;;30.58;12.93;;;;;;;;;;4991183;28;20139;-65
2024/01/30 11:43:10;;;;;;;30.30;13.68;;;;;;;;;;4990977;28;20062;-69
2024/01/30 11:45:37;;;;;;;24.40;12.20;;;;;;;;;;5005124;28;20103;-67
2024/01/30 11:48:07;;;;;;;27.45;12.32;;;;;;;;;;4990472;28;20058;-69
2024/01/30 11:50:34;;;;;;;34.00;14.98;;;;;;;;;;5005777;28;20140;-67
2024/01/30 11:53:02;;;;;;;35.95;13.63;;;;;;;;;;4987834;28;20054;-72
2024/01/30 11:55:31;;;;;;;37.63;14.60;;;;;;;;;;4990370;28;20096;-70
2024/01/30 11:58:00;;;;;;;25.52;14.07;;;;;;;;;;4992000;28;20413;-68
2024/01/30 12:00:27;;;;;;;31.30;14.20;;;;;;;;;;4989804;28;20529;-67
2024/01/30 12:03:00;;;;;;;27.60;14.43;;;;;;;;;;4993298;28;20046;-69
2024/01/30 12:05:29;;;;;;;31.33;13.65;;;;;;;;;;4990859;28;20038;-66
2024/01/30 12:07:58;;;;;;;28.52;14.60;;;;;;;;;;4990546;28;20065;-67
2024/01/30 12:10:26;;;;;;;31.13;13.43;;;;;;;;;;4991800;28;20157;-67
2024/01/30 12:12:52;;;;;;;40.05;14.05;;;;;;;;;;4992706;28;20050;-69
2024/01/30 12:15:21;;;;;;;31.60;14.07;;;;;;;;;;4991862;28;20133;-69
2024/01/30 12:17:48;;;;;;;35.17;14.73;;;;;;;;;;4990350;28;20050;-68
2024/01/30 12:20:18;;;;;;;41.55;14.80;;;;;;;;;;4991331;28;20360;-66
2024/01/30 12:22:49;;;;;;;37.95;14.60;;;;;;;;;;4989898;28;20414;-68
2024/01/30 12:25:17;;;;;;;29.35;14.45;;;;;;;;;;4986471;28;20510;-68
2024/01/30 12:27:50;;;;;;;29.30;13.80;;;;;;;;;;4991069;28;20529;-67
2024/01/30 12:30:18;;;;;;;24.65;13.93;;;;;;;;;;4991982;28;20148;-70
2024/01/30 12:32:45;;;;;;;26.98;14.82;;;;;;;;;;4988916;28;20402;-69
2024/01/30 12:35:16;;;;;;;27.17;14.40;;;;;;;;;;5002316;28;20044;-68
2024/01/30 12:37:46;;;;;;;31.40;14.55;;;;;;;;;;4992212;28;20530;-66
2024/01/30 12:40:14;;;;;;;36.05;13.77;;;;;;;;;;4990593;28;20315;-69
2024/01/30 12:42:46;;;;;;;33.03;14.18;;;;;;;;;;4986040;28;20054;-72
2024/01/30 12:45:15;;;;;;;38.10;14.95;;;;;;;;;;4990767;28;20054;-68
2024/01/30 12:47:41;;;;;;;31.92;13.90;;;;;;;;;;4989763;28;20422;-68
2024/01/30 12:50:12;;;;;;;39.72;15.57;;;;;;;;;;4990606;28;20062;-70
2024/01/30 12:52:38;;;;;;;26.95;13.82;;;;;;;;;;4988260;28;20046;-67
2024/01/30 12:55:05;;;;;;;28.55;13.82;;;;;;;;;;4988689;28;20145;-69
2024/01/30 12:57:30;;;;;;;27.80;13.60;;;;;;;;;;4985503;28;20145;-68
2024/01/30 12:59:57;;;;;;;27.85;13.77;;;;;;;;;;4989461;28;20065;-68
2024/01/30 13:02:23;;;;;;;33.00;13.88;;;;;;;;;;4992250;28;20136;-68
2024/01/30 13:04:50;;;;;;;33.95;13.73;;;;;;;;;;4989908;28;20697;-68
2024/01/30 13:07:18;;;;;;;30.20;14.32;;;;;;;;;;4990812;28;20050;-68
2024/01/30 13:09:45;;;;;;;28.10;14.40;;;;;;;;;;5003777;28;20494;-68
2024/01/30 13:12:11;;;;;;;30.65;14.35;;;;;;;;;;4973326;28;20072;-67
2024/01/30 13:14:37;;;;;;;28.27;13.85;;;;;;;;;;4991688;28;20422;-69
2024/01/30 13:17:06;;;;;;;32.13;15.32;;;;;;;;;;4991440;28;20048;-68
2024/01/30 13:19:34;;;;;;;30.23;15.10;;;;;;;;;;4992125;28;20062;-70
2024/01/30 13:22:00;;;;;;;31.05;13.70;;;;;;;;;;4988483;28;20093;-68
2024/01/30 13:24:27;;;;;;;28.58;14.60;;;;;;;;;;4989076;28;20521;-69
2024/01/30 13:26:54;;;;;;;30.77;14.38;;;;;;;;;;4989753;28;20056;-69
2024/01/30 13:29:20;;;;;;;27.40;13.85;;;;;;;;;;4989118;28;20077;-68
2024/01/30 13:31:51;;;;;;;28.27;13.88;;;;;;;;;;4989824;28;20049;-66
2024/01/30 13:34:19;;;;;;;33.05;14.70;;;;;;;;;;4988810;28;20483;-69
2024/01/30 13:36:45;;;;;;;34.78;14.77;;;;;;;;;;4988661;28;20112;-69
2024/01/30 13:39:14;;;;;;;38.20;15.57;;;;;;;;;;4988639;28;20066;-68
2024/01/30 13:41:48;;;;;;;31.63;14.77;;;;;;;;;;4991508;28;20294;-67
2024/01/30 13:44:17;;;;;;;29.92;14.98;;;;;;;;;;4987636;28;20050;-67
2024/01/30 13:46:43;;;;;;;56.25;16.38;;;;;;;;;;4989309;28;20105;-68
2024/01/30 13:49:11;;;;;;;35.33;16.38;;;;;;;;;;4987277;28;20034;-68
2024/01/30 13:51:38;;;;;;;38.78;17.42;;;;;;;;;;4983997;28;20079;-68
2024/01/30 13:54:09;;;;;;;32.80;16.98;;;;;;;;;;5002454;28;20062;-68
2024/01/30 13:56:37;;;;;;;33.47;15.55;;;;;;;;;;4982708;28;20054;-68
2024/01/30 13:59:11;;;;;;;37.53;14.98;;;;;;;;;;4990052;28;20054;-67
2024/01/30 14:01:37;;;;;;;26.45;13.65;;;;;;;;;;4990110;28;20053;-69
2024/01/30 14:04:14;;;;;;;31.48;13.65;;;;;;;;;;4988138;28;20046;-69
2024/01/30 14:06:40;;;;;;;31.23;13.27;;;;;;;;;;4989581;28;20095;-67
2024/01/30 14:09:14;;;;;;;29.75;12.90;;;;;;;;;;4981458;28;20070;-68
2024/01/30 14:11:44;;;;;;;24.60;12.32;;;;;;;;;;4988296;28;20050;-69
2024/01/30 14:14:11;;;;;;;30.63;12.80;;;;;;;;;;4987297;28;20061;-69
2024/01/30 14:16:36;;;;;;;25.90;12.23;;;;;;;;;;4986518;28;20057;-68
2024/01/30 14:19:03;;;;;;;25.65;11.40;;;;;;;;;;4989537;28;20054;-67
2024/01/30 14:21:29;;;;;;;27.55;12.23;;;;;;;;;;4990316;28;20049;-69
2024/01/30 14:23:56;;;;;;;25.17;12.77;;;;;;;;;;4987764;28;20054;-68
2024/01/30 14:26:24;;;;;;;24.52;12.45;;;;;;;;;;4987893;28;20050;-71
2024/01/30 14:28:51;;;;;;;25.27;12.90;;;;;;;;;;4988916;28;20070;-67
2024/01/30 14:31:18;;;;;;;34.42;13.75;;;;;;;;;;4968203;28;20083;-68
2024/01/30 14:33:46;;;;;;;26.48;13.15;;;;;;;;;;4984578;28;20501;-68
2024/01/30 14:36:14;;;;;;;30.83;14.02;;;;;;;;;;4987864;28;20116;-69
2024/01/30 14:38:45;;;;;;;26.23;11.98;;;;;;;;;;4987172;28;20334;-67
2024/01/30 14:41:13;;;;;;;18.92;9.13;;;;;;;;;;4988814;28;20121;-67
2024/01/30 14:43:47;;;;;;;18.13;8.57;;;;;;;;;;4987928;28;20376;-70
2024/01/30 14:46:13;;;;;;;17.05;8.48;;;;;;;;;;4988902;28;20043;-66
2024/01/30 14:48:43;;;;;;;17.08;9.00;;;;;;;;;;4981897;28;20046;-66
2024/01/30 14:51:10;;;;;;;16.77;8.85;;;;;;;;;;4980557;28;20042;-67
2024/01/30 14:53:38;;;;;;;24.58;10.13;;;;;;;;;;4985761;28;20142;-69
2024/01/30 14:56:05;;;;;;;18.60;8.93;;;;;;;;;;4987158;28;20054;-67
2024/01/30 14:58:33;;;;;;;19.58;8.65;;;;;;;;;;4987515;28;20678;-68